This is the latest recevied weather packets stored in our database for station/object DL3APY-12. If no packets are shown the sender has not sent any weather packets the latest 1 day(s).
| Time | Temp. | Humidity | Pressure | Rain* | Wind** | Luminosity | Snow |
|---|---|---|---|---|---|---|---|
| 1778089780 | 22.78° C | 58% | 1010.5 hPa | - | - | - | - |
| 1778089410 | 22.22° C | 58% | 1010.5 hPa | - | - | - | - |
| 1778089276 | 22.22° C | 58% | 1010.4 hPa | - | - | - | - |
| 1778089094 | 22.22° C | 58% | 1008.2 hPa | - | - | - | - |
| 1778088692 | 22.22° C | 58% | 1010 hPa | - | - | - | - |
| 1778088585 | 22.22° C | 58% | 1008.9 hPa | - | - | - | - |
| 1778087442 | 22.22° C | 56% | 1008.9 hPa | - | - | - | - |
| 1778086356 | 22.22° C | 59% | 1009.7 hPa | - | - | - | - |
| 1778085891 | 21.67° C | 64% | 1008.6 hPa | - | - | - | - |
| 1778085166 | 20.56° C | 72% | 1010.6 hPa | - | - | - | - |
| 1778085045 | 20° C | 72% | 1007.6 hPa | - | - | - | - |
| 1778084829 | 20° C | 68% | 1002.6 hPa | - | - | - | - |
| 1778084708 | 20° C | 67% | 1006.7 hPa | - | - | - | - |
| 1778084468 | 20.56° C | 66% | 1006.8 hPa | - | - | - | - |
| 1778083946 | 21.11° C | 64% | 1016.7 hPa | - | - | - | - |
| 1778083641 | 21.11° C | 62% | 1007.7 hPa | - | - | - | - |
| 1778082867 | 22.22° C | 61% | 1010.7 hPa | - | - | - | - |
| 1778082383 | 22.22° C | 58% | 1008.6 hPa | - | - | - | - |
| 1778082284 | 22.22° C | 58% | 1010.6 hPa | - | - | - | - |
| 1778082079 | 22.78° C | 58% | 1008.6 hPa | - | - | - | - |
| 1778080944 | 23.33° C | 54% | 1007.8 hPa | - | - | - | - |
| 1778079984 | 23.33° C | 53% | 1019.7 hPa | - | - | - | - |
| 1778079863 | 23.33° C | 53% | 1006.6 hPa | - | - | - | - |
| 1778079742 | 23.33° C | 52% | 1007.7 hPa | - | - | - | - |
| 1778079500 | 23.33° C | 52% | 1006.6 hPa | - | - | - | - |
* Rain since midnight (hover to see other rain measurements)
** Current wind speed in m/s (hover to see current wind gust speed)